New Trenton, IN (47035)

12:25 AM EDT on July 08, 2015 (GMT -0400)
MM Hill | | Change Station
CLOSE
Current Station
Personal Weather Station
Location: West Harrison, IN
Elevation: 780 ft
Nearby Weather Stations

Elev 780 ft 39.29 °N, 84.83 °W | Updated 60 seconds ago

Overcast
Overcast
66.0 °F
Feels Like 66.0 °F
N
0.0
Wind Variable Wind from NNW
Gusts 0.0 mph

Today
High -- | Low -- °F
--% Chance of Precip.
Yesterday
High -- | Low -- °F
Precip. -- in
6:20 AM 9:08 PM
Waning Gibbous, 58% visible
Pressure 30.04 in
Visibility 10.0 miles
Clouds Few 900 ft
Mostly Cloudy 1500 ft
Overcast 2000 ft
Dew Point 66 °F
Humidity 100%
Rainfall 0.00 in
Snow Depth Not available.
UV 0 out of 12
Pollen 1.60 out of 12
Air Quality Not available.
Flu Activity Not available.
SPECI KHAO 080419Z AUTO 00000KT 10SM FEW009 BKN015 OVC020 21/19 A3004 RMK AO2 T02060189

More Conditions Fewer Conditions

Pressure 30.04 in
Visibility 10.0 miles
Clouds Few 900 ft
Mostly Cloudy 1500 ft
Overcast 2000 ft
Dew Point 66 °F
Humidity 100%
Rainfall 0.00 in
Snow Depth Not available.
UV 0 out of 12
Pollen 1.60 out of 12
Air Quality Not available.
Flu Activity Not available.
SPECI KHAO 080419Z AUTO 00000KT 10SM FEW009 BKN015 OVC020 21/19 A3004 RMK AO2 T02060189

More Conditions Fewer Conditions

10-Day Weather Forecast

×

Almanac

Astronomy

Jul. 08, 2015 Rise Set
Actual Time
Civil Twilight
Nautical Twilight
Astronomical Twilight
Moon
Length of Visible Light
Length of Day
Tomorrow will be .
, % of the Moon is Illuminated

Today's Extremes

State Highs State Lows

Community

WunderPhotos

Upload Photos

1,836,050 photos uploaded!

WunderBlogs® & News

Nearby

Air Quality

  Air Quality AQ Index Pollutant
Not available.

Snow Depth

Station Depth Elevation

Earthquake Activity

City Distance Mag. Time & Date
Minimum magnitude displayed is 2.5.

Coastal Water Temperatures

Place Temperature

Stations

Nearby Weather Stations

Station Location Temp. Windchill Dew Point Humidity Wind Precip. Elev Updated Type